Time;durP1;ratioP1;P1;durP2;ratioP2;P2;SDS_P1;SDS_P2;PMS_P1;PMS_P2;Temp;Humidity;BMP_temperature;BMP_pressure;BME280_temperature;BME280_humidity;BME280_pressure;Samples;Min_cycle;Max_cycle;Signal;HPM_P1;HPM_P2
2023/08/28 00:01:45;;;;;;;;;;;14.40;86.20;;;;;;4976604;28;19921;-85
2023/08/28 00:04:11;;;;;;;;;;;14.40;86.00;;;;;;4974007;28;19918;-85
2023/08/28 00:06:36;;;;;;;;;;;14.40;86.00;;;;;;4973752;28;19925;-85
2023/08/28 00:09:02;;;;;;;;;;;14.50;85.20;;;;;;4979200;28;20009;-85
2023/08/28 00:11:28;;;;;;;;;;;14.50;85.30;;;;;;4977238;28;19918;-85
2023/08/28 00:13:53;;;;;;;;;;;14.50;85.60;;;;;;4975785;28;19922;-85
2023/08/28 00:16:19;;;;;;;;;;;14.50;85.30;;;;;;4978742;28;19924;-84
2023/08/28 00:18:44;;;;;;;;;;;14.50;84.60;;;;;;4977182;28;20370;-84
2023/08/28 00:21:10;;;;;;;;;;;14.50;85.10;;;;;;4977129;28;19925;-84
2023/08/28 00:23:35;;;;;;;;;;;14.50;85.40;;;;;;4978242;28;19921;-85
2023/08/28 00:26:01;;;;;;;;;;;14.50;85.20;;;;;;4972112;28;19914;-84
2023/08/28 00:28:26;;;;;;;;;;;14.40;85.80;;;;;;4977851;28;19914;-84
2023/08/28 00:30:52;;;;;;;;;;;14.50;85.50;;;;;;4981322;28;20532;-84
2023/08/28 00:33:17;;;;;;;;;;;14.50;85.20;;;;;;4976342;28;19934;-84
2023/08/28 00:35:43;;;;;;;;;;;14.50;85.10;;;;;;4980296;28;19921;-84
2023/08/28 00:38:09;;;;;;;;;;;14.50;85.10;;;;;;4980082;28;19922;-84
2023/08/28 00:40:38;;;;;;;;;;;14.50;84.60;;;;;;4977765;28;19949;-84
2023/08/28 00:43:10;;;;;;;;;;;14.40;85.10;;;;;;4971308;28;19922;-84
2023/08/28 00:45:40;;;;;;;;;;;14.40;84.30;;;;;;4977923;28;19914;-84
2023/08/28 00:48:05;;;;;;;;;;;14.50;84.50;;;;;;4973760;28;19914;-85
2023/08/28 00:50:31;;;;;;;;;;;14.30;84.40;;;;;;4978853;28;19949;-84
2023/08/28 00:52:56;;;;;;;;;;;14.20;85.10;;;;;;4980146;28;19957;-84
2023/08/28 00:55:23;;;;;;;;;;;14.20;85.40;;;;;;4977336;28;19920;-85
2023/08/28 00:57:48;;;;;;;;;;;14.20;85.40;;;;;;4976361;28;19914;-85
2023/08/28 01:00:15;;;;;;;;;;;14.20;85.30;;;;;;4975280;28;19929;-85
2023/08/28 01:02:40;;;;;;;;;;;14.30;84.70;;;;;;4976187;28;19961;-85
2023/08/28 01:05:06;;;;;;;;;;;14.20;85.50;;;;;;4976834;28;20040;-85
2023/08/28 01:08:02;;;;;;;;;;;14.20;85.90;;;;;;4976877;28;19921;-85
2023/08/28 01:10:33;;;;;;;;;;;14.20;85.70;;;;;;4974592;28;19918;-85
2023/08/28 01:13:04;;;;;;;;;;;14.20;85.50;;;;;;4975190;28;20420;-84
2023/08/28 01:15:31;;;;;;;;;;;14.20;85.30;;;;;;4967146;28;19925;-85
2023/08/28 01:17:58;;;;;;;;;;;14.20;84.80;;;;;;4972328;28;20366;-84
2023/08/28 01:20:26;;;;;;;;;;;14.20;85.20;;;;;;4972331;28;20349;-85
2023/08/28 01:22:57;;;;;;;;;;;14.10;85.90;;;;;;4973739;28;19914;-85
2023/08/28 01:25:24;;;;;;;;;;;14.20;85.80;;;;;;4972278;28;20319;-84
2023/08/28 01:27:51;;;;;;;;;;;14.10;85.60;;;;;;4973090;28;19937;-84
2023/08/28 01:30:17;;;;;;;;;;;14.20;85.40;;;;;;4971946;28;20008;-85
2023/08/28 01:32:43;;;;;;;;;;;14.20;84.90;;;;;;4976476;28;20005;-83
2023/08/28 01:35:24;;;;;;;;;;;14.10;85.90;;;;;;4970796;28;19931;-84
2023/08/28 01:38:08;;;;;;;;;;;14.10;85.60;;;;;;4967550;28;20005;-84
2023/08/28 01:40:55;;;;;;;;;;;14.10;85.30;;;;;;4970281;28;19941;-83
2023/08/28 01:43:22;;;;;;;;;;;14.10;85.10;;;;;;4971211;28;19918;-84
2023/08/28 01:45:49;;;;;;;;;;;14.10;85.10;;;;;;4970048;28;19946;-84
2023/08/28 01:48:14;;;;;;;;;;;14.10;84.90;;;;;;4971183;28;19918;-84
2023/08/28 01:50:39;;;;;;;;;;;14.10;85.00;;;;;;4975190;28;19949;-85
2023/08/28 01:53:05;;;;;;;;;;;14.10;84.90;;;;;;4972408;28;19914;-84
2023/08/28 01:55:50;;;;;;;;;;;14.10;85.10;;;;;;4977212;28;19914;-85
2023/08/28 01:58:16;;;;;;;;;;;14.10;85.70;;;;;;4972814;28;20282;-83
2023/08/28 02:00:41;;;;;;;;;;;14.00;85.40;;;;;;4976310;28;19914;-84
2023/08/28 02:03:08;;;;;;;;;;;14.00;85.10;;;;;;4970412;28;20074;-84
2023/08/28 02:05:34;;;;;;;;;;;14.00;85.60;;;;;;4974368;28;19961;-85
2023/08/28 02:07:59;;;;;;;;;;;14.00;85.90;;;;;;4973001;28;19922;-83
2023/08/28 02:10:25;;;;;;;;;;;14.00;85.50;;;;;;4969994;28;19918;-84
2023/08/28 02:12:51;;;;;;;;;;;14.00;85.20;;;;;;4971995;28;19997;-84
2023/08/28 02:15:17;;;;;;;;;;;14.00;85.50;;;;;;4972101;28;19968;-84
2023/08/28 02:17:42;;;;;;;;;;;14.00;85.80;;;;;;4976701;28;19914;-84
2023/08/28 02:20:09;;;;;;;;;;;14.00;85.60;;;;;;4972955;28;19914;-83
2023/08/28 02:22:35;;;;;;;;;;;13.90;85.80;;;;;;4973095;28;20533;-84
2023/08/28 02:25:00;;;;;;;;;;;13.90;85.20;;;;;;4975830;28;19921;-84
2023/08/28 02:27:25;;;;;;;;;;;13.90;85.60;;;;;;4971954;28;20375;-84
2023/08/28 02:29:51;;;;;;;;;;;14.00;85.20;;;;;;4972710;28;19918;-83
2023/08/28 02:32:17;;;;;;;;;;;13.80;85.40;;;;;;4977497;28;19926;-84
2023/08/28 02:34:42;;;;;;;;;;;13.90;85.30;;;;;;4974757;28;19914;-84
2023/08/28 02:37:08;;;;;;;;;;;13.90;85.50;;;;;;4975292;28;19981;-84
2023/08/28 02:39:33;;;;;;;;;;;13.90;85.80;;;;;;4974757;28;19921;-83
2023/08/28 02:41:59;;;;;;;;;;;13.90;85.70;;;;;;4974872;28;19915;-84
2023/08/28 02:44:24;;;;;;;;;;;13.80;86.00;;;;;;4975080;28;20402;-84
2023/08/28 02:46:50;;;;;;;;;;;14.00;85.70;;;;;;4976010;28;21126;-85
2023/08/28 02:49:15;;;;;;;;;;;14.00;85.40;;;;;;4975485;28;19925;-84
2023/08/28 02:51:41;;;;;;;;;;;14.00;85.30;;;;;;4975255;28;19918;-84
2023/08/28 02:54:06;;;;;;;;;;;13.90;86.10;;;;;;4965368;28;19946;-83
2023/08/28 02:56:34;;;;;;;;;;;13.80;86.10;;;;;;4972036;28;19920;-84
2023/08/28 02:59:01;;;;;;;;;;;13.80;86.10;;;;;;4976052;28;19918;-84
2023/08/28 03:01:26;;;;;;;;;;;13.80;86.30;;;;;;4977697;28;20336;-83
2023/08/28 03:03:52;;;;;;;;;;;13.80;85.50;;;;;;4976508;28;20030;-84
2023/08/28 03:06:17;;;;;;;;;;;13.80;85.30;;;;;;4987837;28;19922;-84
2023/08/28 03:08:43;;;;;;;;;;;13.90;85.00;;;;;;4977543;28;19914;-84
2023/08/28 03:11:08;;;;;;;;;;;13.80;85.20;;;;;;4981422;28;19922;-83
2023/08/28 03:13:34;;;;;;;;;;;13.80;85.20;;;;;;4978909;28;19914;-84
2023/08/28 03:15:59;;;;;;;;;;;13.80;85.30;;;;;;4979299;28;19914;-84
2023/08/28 03:18:25;;;;;;;;;;;13.80;85.50;;;;;;4980646;28;19910;-84
2023/08/28 03:20:51;;;;;;;;;;;13.90;85.20;;;;;;4979388;28;19914;-84
2023/08/28 03:23:17;;;;;;;;;;;13.90;84.80;;;;;;4982716;28;19914;-84
2023/08/28 03:25:43;;;;;;;;;;;13.90;84.90;;;;;;4978050;28;19914;-84
2023/08/28 03:28:09;;;;;;;;;;;13.90;84.80;;;;;;4978079;28;19918;-84
2023/08/28 03:30:34;;;;;;;;;;;13.90;84.80;;;;;;4973939;28;20004;-83
2023/08/28 03:33:00;;;;;;;;;;;13.90;84.90;;;;;;4976213;28;19971;-83
2023/08/28 03:35:25;;;;;;;;;;;13.90;84.80;;;;;;4976732;28;20370;-84
2023/08/28 03:37:51;;;;;;;;;;;13.80;85.10;;;;;;4979876;28;19953;-84
2023/08/28 03:40:16;;;;;;;;;;;13.80;85.20;;;;;;4978042;28;19950;-83
2023/08/28 03:42:42;;;;;;;;;;;13.80;85.60;;;;;;4977292;28;19949;-84
2023/08/28 03:45:08;;;;;;;;;;;13.80;85.70;;;;;;4977095;28;19914;-84
2023/08/28 03:47:33;;;;;;;;;;;13.80;85.60;;;;;;4976538;28;19976;-83
2023/08/28 03:49:59;;;;;;;;;;;13.80;85.60;;;;;;4978943;28;19914;-83
2023/08/28 03:52:24;;;;;;;;;;;13.80;85.50;;;;;;4977233;28;19949;-83
2023/08/28 03:54:49;;;;;;;;;;;13.80;86.20;;;;;;4977742;28;19922;-83
2023/08/28 03:57:15;;;;;;;;;;;13.80;86.30;;;;;;4976314;28;20234;-84
2023/08/28 03:59:40;;;;;;;;;;;13.80;86.30;;;;;;4976623;28;20029;-84
2023/08/28 04:02:06;;;;;;;;;;;13.80;86.00;;;;;;4969746;28;19957;-84
2023/08/28 04:04:31;;;;;;;;;;;13.70;86.30;;;;;;4979919;28;19914;-84
2023/08/28 04:06:58;;;;;;;;;;;13.70;86.40;;;;;;4970026;28;19910;-84
2023/08/28 04:09:23;;;;;;;;;;;13.80;86.20;;;;;;4974554;28;19996;-84
2023/08/28 04:11:49;;;;;;;;;;;13.70;86.10;;;;;;4973661;28;20342;-83
2023/08/28 04:14:14;;;;;;;;;;;13.60;86.10;;;;;;4972006;28;19922;-84
2023/08/28 04:16:40;;;;;;;;;;;13.70;85.90;;;;;;4972142;28;19914;-84
2023/08/28 04:19:05;;;;;;;;;;;13.70;86.00;;;;;;4974315;28;19965;-84
2023/08/28 04:21:31;;;;;;;;;;;13.60;86.00;;;;;;4973684;28;19914;-83
2023/08/28 04:23:56;;;;;;;;;;;13.60;85.70;;;;;;4974380;28;19914;-84
2023/08/28 04:26:22;;;;;;;;;;;13.60;86.40;;;;;;4973294;28;19989;-84
2023/08/28 04:28:47;;;;;;;;;;;13.60;86.20;;;;;;4969201;28;20009;-83
2023/08/28 04:31:13;;;;;;;;;;;13.60;86.00;;;;;;4978275;28;20298;-83
2023/08/28 04:33:39;;;;;;;;;;;13.60;86.00;;;;;;4972282;28;19925;-83
2023/08/28 04:36:04;;;;;;;;;;;13.60;86.10;;;;;;4974748;28;19915;-83
2023/08/28 04:38:30;;;;;;;;;;;13.60;86.30;;;;;;4972948;28;19914;-83
2023/08/28 04:40:55;;;;;;;;;;;13.50;86.40;;;;;;4971864;28;19921;-84
2023/08/28 04:43:21;;;;;;;;;;;13.60;86.00;;;;;;4971141;28;19918;-84
2023/08/28 04:45:48;;;;;;;;;;;13.60;86.80;;;;;;4970352;28;19914;-83
2023/08/28 04:48:13;;;;;;;;;;;13.60;86.60;;;;;;4971915;28;19957;-84
2023/08/28 04:50:39;;;;;;;;;;;13.50;86.70;;;;;;4971267;28;20381;-84
2023/08/28 04:53:05;;;;;;;;;;;13.60;86.40;;;;;;4973826;28;19981;-84
2023/08/28 04:55:30;;;;;;;;;;;13.60;86.40;;;;;;4973296;28;19914;-83
2023/08/28 04:57:56;;;;;;;;;;;13.60;86.30;;;;;;4965862;28;19918;-83
2023/08/28 05:00:21;;;;;;;;;;;13.60;86.40;;;;;;4973493;28;19915;-83
2023/08/28 05:02:47;;;;;;;;;;;13.60;86.40;;;;;;4972503;28;19914;-83
2023/08/28 05:05:12;;;;;;;;;;;13.50;86.00;;;;;;4965075;28;20382;-83
2023/08/28 05:07:37;;;;;;;;;;;13.60;86.70;;;;;;4974862;28;19914;-84
2023/08/28 05:10:03;;;;;;;;;;;13.60;86.40;;;;;;4973644;28;20001;-84
2023/08/28 05:12:28;;;;;;;;;;;13.60;86.80;;;;;;4975867;28;19929;-84
2023/08/28 05:14:54;;;;;;;;;;;13.60;86.50;;;;;;4975259;28;19938;-84
2023/08/28 05:17:19;;;;;;;;;;;13.60;86.60;;;;;;4971920;28;19914;-84
2023/08/28 05:19:45;;;;;;;;;;;13.60;86.70;;;;;;4972578;28;19921;-84
2023/08/28 05:22:10;;;;;;;;;;;13.60;87.00;;;;;;4971841;28;19919;-84
2023/08/28 05:24:36;;;;;;;;;;;13.60;86.90;;;;;;4969185;28;19921;-84
2023/08/28 05:27:02;;;;;;;;;;;13.70;87.10;;;;;;4967205;28;19969;-84
2023/08/28 05:29:27;;;;;;;;;;;13.70;86.40;;;;;;4968757;28;19918;-83
2023/08/28 05:31:53;;;;;;;;;;;13.90;85.70;;;;;;4970496;28;19925;-83
2023/08/28 05:34:18;;;;;;;;;;;13.80;85.90;;;;;;4971266;28;19968;-82
2023/08/28 05:36:44;;;;;;;;;;;13.90;85.80;;;;;;4969303;28;19922;-84
2023/08/28 05:39:09;;;;;;;;;;;13.90;85.90;;;;;;4969601;28;19918;-85
2023/08/28 05:41:35;;;;;;;;;;;14.00;85.90;;;;;;4966977;28;20490;-83
2023/08/28 05:44:00;;;;;;;;;;;14.00;86.00;;;;;;4964445;28;19929;-84
2023/08/28 05:46:26;;;;;;;;;;;14.00;86.10;;;;;;4964589;28;19930;-84
2023/08/28 05:48:58;;;;;;;;;;;14.00;85.80;;;;;;5078158;28;19921;-85
2023/08/28 05:51:24;;;;;;;;;;;14.10;85.50;;;;;;5086788;28;19919;-84
2023/08/28 05:53:49;;;;;;;;;;;14.10;85.30;;;;;;5076509;28;19919;-83
2023/08/28 05:56:15;;;;;;;;;;;14.10;85.40;;;;;;5077895;28;19919;-82
2023/08/28 05:58:40;;;;;;;;;;;14.10;85.60;;;;;;5082693;28;19928;-83
2023/08/28 06:01:06;;;;;;;;;;;14.10;85.60;;;;;;5058459;28;19920;-83
2023/08/28 06:03:31;;;;;;;;;;;14.30;85.20;;;;;;5064217;28;20426;-83
2023/08/28 06:05:59;;;;;;;;;;;14.30;85.00;;;;;;5069155;28;20015;-86
2023/08/28 06:11:36;;;;;;;;;;;14.30;85.10;;;;;;5085098;23;19982;-86
2023/08/28 06:14:11;;;;;;;;;;;14.30;85.20;;;;;;5058883;28;20369;-86
2023/08/28 06:16:37;;;;;;;;;;;14.30;85.40;;;;;;5061764;28;19959;-86
2023/08/28 06:19:03;;;;;;;;;;;14.40;85.60;;;;;;5050222;28;19913;-87
2023/08/28 06:21:29;;;;;;;;;;;14.40;85.00;;;;;;5046211;28;19973;-87
2023/08/28 06:24:03;;;;;;;;;;;14.50;85.00;;;;;;5037593;28;19917;-86
2023/08/28 06:26:28;;;;;;;;;;;14.50;85.00;;;;;;5049182;28;19913;-85
2023/08/28 06:28:54;;;;;;;;;;;14.50;84.60;;;;;;5068486;28;19917;-89
2023/08/28 06:31:38;;;;;;;;;;;14.60;84.80;;;;;;5050704;28;19953;-88
2023/08/28 06:34:04;;;;;;;;;;;14.60;84.90;;;;;;5041042;28;19913;-88
2023/08/28 06:36:51;;;;;;;;;;;14.50;84.80;;;;;;5050371;28;19909;-87
2023/08/28 06:39:18;;;;;;;;;;;14.50;84.40;;;;;;5048160;28;19973;-86
2023/08/28 06:41:54;;;;;;;;;;;14.60;84.80;;;;;;5047425;28;19959;-87
2023/08/28 06:44:19;;;;;;;;;;;14.70;84.30;;;;;;5066878;28;19913;-86
2023/08/28 06:46:45;;;;;;;;;;;14.70;84.10;;;;;;5050698;28;19962;-88
2023/08/28 06:49:13;;;;;;;;;;;14.70;84.20;;;;;;5058391;28;20378;-87
2023/08/28 06:51:39;;;;;;;;;;;14.80;84.20;;;;;;5060621;28;19994;-87
2023/08/28 06:54:04;;;;;;;;;;;14.80;84.30;;;;;;5050446;28;19913;-87
2023/08/28 06:56:30;;;;;;;;;;;14.80;84.30;;;;;;5064349;28;19913;-87
2023/08/28 06:58:55;;;;;;;;;;;14.80;84.10;;;;;;5057212;28;20362;-87
2023/08/28 07:01:22;;;;;;;;;;;14.90;84.00;;;;;;5037039;28;19908;-87
2023/08/28 07:03:50;;;;;;;;;;;14.90;83.90;;;;;;5053755;28;19971;-87
2023/08/28 07:06:22;;;;;;;;;;;14.80;84.20;;;;;;5036904;28;19912;-87
2023/08/28 07:08:47;;;;;;;;;;;14.90;84.40;;;;;;5053378;28;20539;-87
2023/08/28 07:11:15;;;;;;;;;;;14.90;84.50;;;;;;5053690;28;19927;-87
2023/08/28 07:13:49;;;;;;;;;;;15.00;84.40;;;;;;5050807;28;19971;-88
2023/08/28 07:16:15;;;;;;;;;;;15.00;84.50;;;;;;5035675;28;19952;-86
2023/08/28 07:18:43;;;;;;;;;;;15.00;84.50;;;;;;5035383;28;19945;-88
2023/08/28 07:21:12;;;;;;;;;;;15.20;84.10;;;;;;5048910;28;20015;-88
2023/08/28 07:23:38;;;;;;;;;;;15.20;84.30;;;;;;5043306;28;19915;-88
2023/08/28 07:26:07;;;;;;;;;;;15.20;84.40;;;;;;5052452;28;19913;-88
2023/08/28 07:28:32;;;;;;;;;;;15.20;84.20;;;;;;5032740;28;19913;-87
2023/08/28 07:31:03;;;;;;;;;;;15.30;84.40;;;;;;5052270;28;19917;-87
2023/08/28 07:33:29;;;;;;;;;;;15.40;83.70;;;;;;5034418;28;19917;-88
2023/08/28 07:35:57;;;;;;;;;;;15.50;83.80;;;;;;5042312;28;19962;-87
2023/08/28 07:38:23;;;;;;;;;;;15.50;83.90;;;;;;5045782;23;19924;-87
2023/08/28 07:40:49;;;;;;;;;;;15.60;84.00;;;;;;5057490;28;20399;-87
2023/08/28 07:43:14;;;;;;;;;;;15.70;84.10;;;;;;5056675;28;20287;-86
2023/08/28 07:45:40;;;;;;;;;;;15.80;83.70;;;;;;5050976;28;19923;-87
2023/08/28 07:48:06;;;;;;;;;;;15.80;83.70;;;;;;5053114;28;19923;-86
2023/08/28 07:50:31;;;;;;;;;;;15.80;83.30;;;;;;5066635;28;19916;-87
2023/08/28 07:52:57;;;;;;;;;;;15.80;83.50;;;;;;5074404;28;19964;-88
2023/08/28 07:55:22;;;;;;;;;;;15.90;83.20;;;;;;5054533;28;19944;-87
2023/08/28 07:57:48;;;;;;;;;;;15.90;83.30;;;;;;5056004;28;19915;-86
2023/08/28 08:00:15;;;;;;;;;;;16.00;83.50;;;;;;5073331;28;20028;-86
2023/08/28 08:02:41;;;;;;;;;;;16.10;83.30;;;;;;5074442;28;20403;-86
2023/08/28 08:05:08;;;;;;;;;;;16.30;83.00;;;;;;5054211;28;19935;-87
2023/08/28 08:07:34;;;;;;;;;;;16.30;82.30;;;;;;5056460;28;20071;-87
2023/08/28 08:10:00;;;;;;;;;;;16.30;81.80;;;;;;5054388;28;19940;-87
2023/08/28 08:12:26;;;;;;;;;;;16.20;82.60;;;;;;5074246;28;19913;-87
2023/08/28 08:14:52;;;;;;;;;;;16.30;82.60;;;;;;5057633;28;19915;-87
2023/08/28 08:17:17;;;;;;;;;;;16.40;82.10;;;;;;5056765;28;20364;-86
2023/08/28 08:19:43;;;;;;;;;;;16.40;82.00;;;;;;5055893;28;19909;-87
2023/08/28 08:22:08;;;;;;;;;;;16.50;82.30;;;;;;5055961;28;19924;-86
2023/08/28 08:24:34;;;;;;;;;;;16.60;82.10;;;;;;5071291;28;20331;-86
2023/08/28 08:26:59;;;;;;;;;;;17.00;81.30;;;;;;5054291;28;19920;-87
2023/08/28 08:29:25;;;;;;;;;;;17.10;80.60;;;;;;5099644;22;20381;-89
2023/08/28 08:31:53;;;;;;;;;;;17.30;80.00;;;;;;5095527;28;19962;-89
2023/08/28 08:34:19;;;;;;;;;;;17.60;79.60;;;;;;5075495;28;19959;-89
2023/08/28 08:36:44;;;;;;;;;;;17.70;78.80;;;;;;5076618;28;19912;-89
2023/08/28 08:39:10;;;;;;;;;;;17.80;78.90;;;;;;5082459;28;19917;-89
2023/08/28 08:41:36;;;;;;;;;;;18.00;78.00;;;;;;5056469;28;20278;-88
2023/08/28 08:44:02;;;;;;;;;;;18.00;78.40;;;;;;5049092;28;19921;-87
2023/08/28 08:46:27;;;;;;;;;;;18.10;77.50;;;;;;5055453;28;19931;-87
2023/08/28 08:48:54;;;;;;;;;;;18.00;76.90;;;;;;5055209;28;19924;-87
2023/08/28 08:51:23;;;;;;;;;;;18.00;77.20;;;;;;5073255;28;20348;-87
2023/08/28 08:54:00;;;;;;;;;;;18.00;76.90;;;;;;5055518;28;20330;-87
2023/08/28 08:56:27;;;;;;;;;;;18.00;77.20;;;;;;5053750;28;19916;-87
2023/08/28 08:58:53;;;;;;;;;;;18.10;77.20;;;;;;5072856;28;19908;-87
2023/08/28 09:01:19;;;;;;;;;;;18.00;76.30;;;;;;5054946;28;19931;-87
2023/08/28 09:03:45;;;;;;;;;;;17.90;76.50;;;;;;5055685;28;19919;-87
2023/08/28 09:06:10;;;;;;;;;;;18.00;76.50;;;;;;5058915;28;20295;-87
2023/08/28 09:08:40;;;;;;;;;;;18.00;75.90;;;;;;5074379;28;20270;-87
2023/08/28 09:11:06;;;;;;;;;;;18.00;75.90;;;;;;5078379;28;19916;-87
2023/08/28 09:13:32;;;;;;;;;;;18.10;76.40;;;;;;5054343;28;19951;-87
2023/08/28 09:15:57;;;;;;;;;;;18.00;76.60;;;;;;5072753;28;19909;-88
2023/08/28 09:18:25;;;;;;;;;;;18.10;76.80;;;;;;5055051;28;19912;-87
2023/08/28 09:21:10;;;;;;;;;;;18.00;75.90;;;;;;5055236;28;19915;-87
2023/08/28 09:23:46;;;;;;;;;;;18.10;74.80;;;;;;5054727;28;20221;-87
2023/08/28 09:26:13;;;;;;;;;;;18.10;75.00;;;;;;5057357;28;20408;-88
2023/08/28 09:28:38;;;;;;;;;;;18.10;73.70;;;;;;5062049;28;20078;-90
2023/08/28 09:31:04;;;;;;;;;;;18.20;74.10;;;;;;5074100;28;20447;-89
2023/08/28 09:33:44;;;;;;;;;;;18.20;74.20;;;;;;5056538;28;19909;-89
2023/08/28 09:36:14;;;;;;;;;;;18.10;74.20;;;;;;5048306;28;20002;-90
2023/08/28 09:38:42;;;;;;;;;;;18.10;74.40;;;;;;5047505;28;20397;-89
2023/08/28 09:41:08;;;;;;;;;;;18.20;73.70;;;;;;5054491;28;19912;-89
2023/08/28 09:43:35;;;;;;;;;;;18.20;72.80;;;;;;5054532;28;19915;-89
2023/08/28 09:46:00;;;;;;;;;;;18.30;70.70;;;;;;5054920;28;19999;-89
2023/08/28 09:48:28;;;;;;;;;;;18.30;71.60;;;;;;5072714;28;19951;-89
2023/08/28 09:50:54;;;;;;;;;;;18.40;71.30;;;;;;5055773;28;20373;-89
2023/08/28 09:53:28;;;;;;;;;;;18.30;72.20;;;;;;5054884;28;19947;-89
2023/08/28 09:55:54;;;;;;;;;;;18.50;72.60;;;;;;5055219;28;19915;-90
2023/08/28 09:58:23;;;;;;;;;;;18.60;70.30;;;;;;5054080;28;19909;-89
2023/08/28 10:00:50;;;;;;;;;;;18.70;70.90;;;;;;5055400;28;19908;-89
2023/08/28 10:03:15;;;;;;;;;;;18.60;71.30;;;;;;5054886;28;19908;-89
2023/08/28 10:05:42;;;;;;;;;;;18.60;71.70;;;;;;5055389;28;19912;-90
2023/08/28 10:08:09;;;;;;;;;;;18.70;71.70;;;;;;5054798;28;20400;-89
2023/08/28 10:10:36;;;;;;;;;;;18.80;71.10;;;;;;5055430;28;20349;-89
2023/08/28 10:13:05;;;;;;;;;;;18.90;71.00;;;;;;5060837;28;19905;-90
2023/08/28 10:15:32;;;;;;;;;;;19.00;69.20;;;;;;5078298;28;19909;-91
2023/08/28 10:18:00;;;;;;;;;;;19.10;67.60;;;;;;5068140;28;19913;-90
2023/08/28 10:20:28;;;;;;;;;;;19.10;68.40;;;;;;5056850;28;19909;-90
2023/08/28 10:22:54;;;;;;;;;;;19.10;69.60;;;;;;5055719;28;19912;-90
2023/08/28 10:25:21;;;;;;;;;;;19.30;68.50;;;;;;5074297;28;19938;-90
2023/08/28 10:27:46;;;;;;;;;;;19.30;69.00;;;;;;5076602;28;19913;-91
2023/08/28 10:30:12;;;;;;;;;;;19.30;68.80;;;;;;5073740;28;19975;-90
2023/08/28 10:32:38;;;;;;;;;;;19.30;69.20;;;;;;5061731;28;19915;-89
2023/08/28 10:35:04;;;;;;;;;;;19.30;69.40;;;;;;5076328;28;19916;-89
2023/08/28 10:37:30;;;;;;;;;;;19.40;68.20;;;;;;5081699;28;19927;-90
2023/08/28 10:40:01;;;;;;;;;;;19.30;66.70;;;;;;5099074;28;19915;-88
2023/08/28 10:42:26;;;;;;;;;;;19.40;67.70;;;;;;5061043;28;19920;-88
2023/08/28 10:44:52;;;;;;;;;;;19.30;67.90;;;;;;5064120;28;19916;-87
2023/08/28 10:47:18;;;;;;;;;;;19.50;67.60;;;;;;5062434;28;19927;-87
2023/08/28 10:49:43;;;;;;;;;;;19.50;67.90;;;;;;5059079;28;19919;-87
2023/08/28 10:52:09;;;;;;;;;;;19.50;68.30;;;;;;5058410;28;19912;-87
2023/08/28 10:54:38;;;;;;;;;;;19.30;69.00;;;;;;5058260;28;19912;-88
2023/08/28 10:57:09;;;;;;;;;;;19.30;68.60;;;;;;5058419;28;19913;-88
2023/08/28 10:59:45;;;;;;;;;;;19.40;67.90;;;;;;5063892;28;20297;-88
2023/08/28 11:02:11;;;;;;;;;;;19.50;67.70;;;;;;5057904;28;19912;-87
2023/08/28 11:04:37;;;;;;;;;;;19.50;67.00;;;;;;5075019;28;19917;-87
2023/08/28 11:07:04;;;;;;;;;;;19.50;66.60;;;;;;5058571;28;20011;-88
2023/08/28 11:09:29;;;;;;;;;;;19.60;67.10;;;;;;5058384;28;19915;-88
2023/08/28 11:11:57;;;;;;;;;;;19.50;67.30;;;;;;5058637;28;19912;-87
2023/08/28 11:14:23;;;;;;;;;;;19.60;68.20;;;;;;5057869;28;20362;-87
2023/08/28 11:17:03;;;;;;;;;;;19.60;67.00;;;;;;5057511;28;20040;-87
2023/08/28 11:19:29;;;;;;;;;;;19.70;66.60;;;;;;5058214;28;19970;-89
2023/08/28 11:21:57;;;;;;;;;;;19.80;66.90;;;;;;5064242;28;19919;-89
2023/08/28 11:24:26;;;;;;;;;;;19.90;66.40;;;;;;5062015;28;19977;-88
2023/08/28 11:26:52;;;;;;;;;;;20.00;65.90;;;;;;5057181;28;20011;-89
2023/08/28 11:29:27;;;;;;;;;;;20.00;64.40;;;;;;5057217;28;19920;-89
2023/08/28 11:31:53;;;;;;;;;;;20.10;64.20;;;;;;5057113;28;19995;-90
2023/08/28 11:34:18;;;;;;;;;;;20.10;64.00;;;;;;5056906;28;19967;-89
2023/08/28 11:36:45;;;;;;;;;;;20.20;65.30;;;;;;5057592;28;19912;-89
2023/08/28 11:39:22;;;;;;;;;;;20.30;64.50;;;;;;5057541;28;19909;-89
2023/08/28 11:41:47;;;;;;;;;;;20.30;63.10;;;;;;5067009;28;19917;-89
2023/08/28 11:44:14;;;;;;;;;;;20.30;63.20;;;;;;5057324;28;19913;-90
2023/08/28 11:46:40;;;;;;;;;;;20.20;64.60;;;;;;5057518;28;19947;-89
2023/08/28 11:49:06;;;;;;;;;;;20.10;65.20;;;;;;5056859;28;20287;-90
2023/08/28 11:51:31;;;;;;;;;;;20.10;65.90;;;;;;5058590;28;20242;-88
2023/08/28 11:53:58;;;;;;;;;;;19.90;65.00;;;;;;5054736;28;19912;-87
2023/08/28 11:56:23;;;;;;;;;;;20.00;64.90;;;;;;5055965;28;19913;-87
2023/08/28 11:58:49;;;;;;;;;;;20.00;62.80;;;;;;5052527;28;19913;-87
2023/08/28 12:01:15;;;;;;;;;;;19.90;61.30;;;;;;5075366;28;19920;-87
2023/08/28 12:03:41;;;;;;;;;;;20.00;59.90;;;;;;5075416;28;19942;-87
2023/08/28 12:06:08;;;;;;;;;;;20.00;60.20;;;;;;5075127;28;19912;-87
2023/08/28 12:08:35;;;;;;;;;;;20.00;60.80;;;;;;5075244;28;19925;-88
2023/08/28 12:11:00;;;;;;;;;;;20.20;60.60;;;;;;5057863;28;19908;-89
2023/08/28 12:13:26;;;;;;;;;;;20.20;59.20;;;;;;5057474;28;19916;-89
2023/08/28 12:16:04;;;;;;;;;;;20.30;59.70;;;;;;5057335;28;19916;-89
2023/08/28 12:18:41;;;;;;;;;;;20.40;61.10;;;;;;5060885;28;19912;-86
2023/08/28 12:21:07;;;;;;;;;;;20.50;61.30;;;;;;5076060;28;19920;-88
2023/08/28 12:23:32;;;;;;;;;;;20.50;60.20;;;;;;5058787;28;19931;-87
2023/08/28 12:25:58;;;;;;;;;;;20.60;60.50;;;;;;5086526;28;19912;-87
2023/08/28 12:28:24;;;;;;;;;;;20.80;60.90;;;;;;5087190;28;19912;-86
2023/08/28 12:30:51;;;;;;;;;;;20.70;60.70;;;;;;5097951;28;19924;-87
2023/08/28 12:33:17;;;;;;;;;;;20.80;61.50;;;;;;5076021;28;20368;-86
2023/08/28 12:35:42;;;;;;;;;;;20.90;62.20;;;;;;5062085;28;19909;-86
2023/08/28 12:38:08;;;;;;;;;;;21.00;61.10;;;;;;5057354;28;20282;-86
2023/08/28 12:40:35;;;;;;;;;;;21.00;60.30;;;;;;5073942;28;19916;-86
2023/08/28 12:43:03;;;;;;;;;;;21.10;59.60;;;;;;5057807;28;20435;-87
2023/08/28 12:45:33;;;;;;;;;;;21.00;59.50;;;;;;5056883;28;19912;-87
2023/08/28 12:47:58;;;;;;;;;;;20.90;60.60;;;;;;5058536;28;20002;-86
2023/08/28 12:50:24;;;;;;;;;;;20.60;61.00;;;;;;5058100;28;19951;-86
2023/08/28 12:52:49;;;;;;;;;;;20.80;60.10;;;;;;5058275;28;19909;-87
2023/08/28 12:55:15;;;;;;;;;;;20.90;59.80;;;;;;5057913;28;19917;-87
2023/08/28 12:57:40;;;;;;;;;;;21.00;59.20;;;;;;5075451;28;19932;-87
2023/08/28 13:00:07;;;;;;;;;;;21.00;59.70;;;;;;5058510;28;19909;-87
2023/08/28 13:02:33;;;;;;;;;;;21.20;58.10;;;;;;5058208;28;19909;-86
2023/08/28 13:05:00;;;;;;;;;;;21.10;59.60;;;;;;5059249;28;19912;-86
2023/08/28 13:07:26;;;;;;;;;;;21.00;59.00;;;;;;5057436;28;19912;-87
2023/08/28 13:09:51;;;;;;;;;;;21.00;60.30;;;;;;5075432;28;19915;-87
2023/08/28 13:12:18;;;;;;;;;;;21.10;58.70;;;;;;5057765;28;19919;-86
2023/08/28 13:14:44;;;;;;;;;;;21.00;59.10;;;;;;5057955;28;19958;-86
2023/08/28 13:17:09;;;;;;;;;;;21.00;58.30;;;;;;5058636;28;19912;-86
2023/08/28 13:19:35;;;;;;;;;;;21.10;57.70;;;;;;5063488;28;19967;-87
2023/08/28 13:22:00;;;;;;;;;;;21.20;57.00;;;;;;5056624;28;19919;-85
2023/08/28 13:24:26;;;;;;;;;;;21.10;55.90;;;;;;5075492;28;20385;-87
2023/08/28 13:26:51;;;;;;;;;;;20.90;57.40;;;;;;5072979;28;20091;-88
2023/08/28 13:29:17;;;;;;;;;;;20.80;59.20;;;;;;5054491;28;19963;-88
2023/08/28 13:31:42;;;;;;;;;;;20.80;60.90;;;;;;5065846;28;19900;-87
2023/08/28 13:34:08;;;;;;;;;;;21.00;59.60;;;;;;5078474;28;19900;-88
2023/08/28 13:36:33;;;;;;;;;;;21.00;59.60;;;;;;5077981;28;19912;-85
2023/08/28 13:39:01;;;;;;;;;;;21.20;59.10;;;;;;5057207;28;19912;-86
2023/08/28 13:41:27;;;;;;;;;;;21.30;59.60;;;;;;5059757;28;19912;-85
2023/08/28 13:43:52;;;;;;;;;;;21.30;58.90;;;;;;5075656;28;19958;-85
2023/08/28 13:46:18;;;;;;;;;;;21.40;58.50;;;;;;5078290;28;19912;-85
2023/08/28 13:48:43;;;;;;;;;;;21.60;57.50;;;;;;5059721;28;19916;-86
2023/08/28 13:51:09;;;;;;;;;;;21.70;56.70;;;;;;5061117;28;19908;-85
2023/08/28 13:53:34;;;;;;;;;;;21.50;56.60;;;;;;5074088;28;19913;-85
2023/08/28 13:56:00;;;;;;;;;;;21.50;56.00;;;;;;5079770;28;19908;-85
2023/08/28 13:58:25;;;;;;;;;;;21.60;55.50;;;;;;5065357;28;19912;-85
2023/08/28 14:00:58;;;;;;;;;;;21.60;55.80;;;;;;5061074;28;19948;-85
2023/08/28 14:03:24;;;;;;;;;;;21.60;57.50;;;;;;5060728;28;19908;-86
2023/08/28 14:05:49;;;;;;;;;;;21.70;56.40;;;;;;5066949;28;19915;-86
2023/08/28 14:08:15;;;;;;;;;;;21.80;56.20;;;;;;5079316;28;19921;-86
2023/08/28 14:10:40;;;;;;;;;;;21.80;57.20;;;;;;5083714;28;20049;-86
2023/08/28 14:13:05;;;;;;;;;;;21.70;57.20;;;;;;5082925;28;19912;-85
2023/08/28 14:15:31;;;;;;;;;;;21.70;56.50;;;;;;5063204;28;19909;-85
2023/08/28 14:17:57;;;;;;;;;;;21.60;56.90;;;;;;5064944;28;19916;-86